Terminal Aerodrome Forecast
Issued by NWS

Home | Current Version | Previous Version | Graphics & Text | Print | Product List | Glossary On
Versions: 1 2 3 4 5 6 7 8 9 10 11 12 13 14 15 16 17 18
000
FTUS43 KBIS 241700
TAFDIK
TAF
KDIK 241734Z 2418/2518 23007KT P6SM BKN017 OVC025
     FM242300 27008KT P6SM BKN035 OVC070
     FM250100 28007KT 5SM -SN BR OVC050
     FM250500 30006KT P6SM BKN050 OVC080
     FM250900 34008KT P6SM BKN030 OVC070=

USA.gov is the U.S. government's official web portal to all federal, state and local government web resources and services.